createdAt,value
2023-02-06T00:12:44.855Z,-0.27
2023-02-06T00:32:44.881Z,-0.41
2023-02-06T00:52:44.888Z,-0.37
2023-02-06T01:12:44.920Z,-0.35
2023-02-06T01:32:44.890Z,-0.72
2023-02-06T01:52:44.907Z,-0.75
2023-02-06T02:12:44.918Z,-0.53
2023-02-06T02:32:44.931Z,-0.53
2023-02-06T02:52:44.941Z,-0.51
2023-02-06T03:12:44.949Z,-0.47
2023-02-06T03:32:44.961Z,-0.51
2023-02-06T03:52:44.967Z,-0.95
2023-02-06T04:12:44.995Z,-1.55
2023-02-06T04:32:44.995Z,-2.15
2023-02-06T04:52:44.997Z,-2.44
2023-02-06T05:12:45.003Z,-2.89
2023-02-06T05:32:45.008Z,-3.38
2023-02-06T05:52:45.044Z,-3.28
2023-02-06T06:12:45.120Z,-3.27
2023-02-06T06:32:45.186Z,-3.57
2023-02-06T06:52:45.194Z,-3.49
2023-02-06T07:12:45.174Z,-3.29
2023-02-06T07:32:45.185Z,-3.17
2023-02-06T07:52:45.177Z,-2.71
2023-02-06T08:12:45.187Z,-1.98
2023-02-06T08:32:45.222Z,-1.46
2023-02-06T08:52:45.201Z,-0.92
2023-02-06T09:12:45.215Z,-0.61
2023-02-06T09:32:45.353Z,-0.48
2023-02-06T09:53:49.608Z,-0.01
2023-02-06T10:12:45.202Z,0.43
2023-02-06T10:32:45.233Z,0.68
2023-02-06T10:52:45.351Z,0.80
2023-02-06T11:12:45.234Z,0.88
2023-02-06T11:32:45.251Z,0.69
2023-02-06T11:52:45.253Z,0.50
2023-02-06T12:12:45.272Z,0.46
2023-02-06T12:32:45.275Z,0.57
2023-02-06T12:52:45.281Z,0.57
2023-02-06T13:12:45.294Z,0.64
2023-02-06T13:32:45.328Z,0.46
2023-02-06T13:52:45.250Z,0.50
2023-02-06T14:12:45.233Z,0.80
2023-02-06T14:32:45.341Z,1.31
2023-02-06T14:52:45.340Z,0.94
2023-02-06T15:12:45.347Z,1.01
2023-02-06T15:32:45.317Z,1.17
2023-02-06T15:52:45.415Z,0.99
2023-02-06T16:12:45.313Z,0.74
2023-02-06T16:32:45.348Z,0.66
2023-02-06T16:52:45.333Z,0.45
2023-02-06T17:12:45.338Z,0.28
2023-02-06T17:32:45.345Z,0.21
2023-02-06T17:52:45.357Z,0.09
2023-02-06T18:12:45.425Z,0.02
2023-02-06T18:32:45.297Z,0.13
2023-02-06T18:52:45.291Z,-0.03
2023-02-06T19:12:45.371Z,-0.35
2023-02-06T19:32:45.314Z,-0.76
2023-02-06T19:52:45.388Z,-1.09
2023-02-06T20:12:45.335Z,-1.56
2023-02-06T20:32:45.345Z,-1.74
2023-02-06T20:52:45.353Z,-1.84
2023-02-06T21:12:45.355Z,-2.15
2023-02-06T21:32:45.378Z,-2.34
2023-02-06T21:52:45.384Z,-2.34
2023-02-06T22:12:45.403Z,-2.52
2023-02-06T22:32:45.459Z,-2.60
2023-02-06T22:52:45.502Z,-2.99
2023-02-06T23:12:45.508Z,-3.08
2023-02-06T23:32:45.560Z,-3.17
2023-02-06T23:52:45.555Z,-3.15
